Time;durP1;ratioP1;P1;durP2;ratioP2;P2;SDS_P1;SDS_P2;PMS_P1;PMS_P2;Temp;Humidity;BMP_temperature;BMP_pressure;BME280_temperature;BME280_humidity;BME280_pressure;Samples;Min_cycle;Max_cycle;Signal;HPM_P1;HPM_P2
2023/12/04 00:00:26;;;;;;;28.67;13.60;;;2.30;99.90;;;;;;5060349;28;20104;-76
2023/12/04 00:02:52;;;;;;;28.55;13.10;;;2.30;99.90;;;;;;5056997;28;20021;-76
2023/12/04 00:05:18;;;;;;;29.13;13.43;;;2.30;99.90;;;;;;5072834;28;20032;-76
2023/12/04 00:07:43;;;;;;;28.98;14.25;;;2.30;99.90;;;;;;5072541;28;20402;-76
2023/12/04 00:10:09;;;;;;;28.35;13.85;;;2.30;99.90;;;;;;5085637;28;20020;-76
2023/12/04 00:12:35;;;;;;;25.38;12.35;;;2.30;99.90;;;;;;5083516;28;20016;-76
2023/12/04 00:15:00;;;;;;;27.98;13.68;;;2.30;99.90;;;;;;5069545;28;20052;-76
2023/12/04 00:17:26;;;;;;;28.17;13.65;;;2.30;99.90;;;;;;5079491;28;20024;-76
2023/12/04 00:19:51;;;;;;;28.33;13.75;;;2.30;99.90;;;;;;5080764;28;20373;-76
2023/12/04 00:22:17;;;;;;;31.58;13.70;;;2.30;99.90;;;;;;5081574;28;20047;-75
2023/12/04 00:24:42;;;;;;;31.77;13.55;;;2.30;99.90;;;;;;5074376;28;20040;-75
2023/12/04 00:27:08;;;;;;;29.45;13.32;;;2.30;99.90;;;;;;5082280;28;20043;-76
2023/12/04 00:29:34;;;;;;;27.77;12.95;;;2.30;99.90;;;;;;5088382;28;20448;-76
2023/12/04 00:31:59;;;;;;;30.70;13.50;;;2.30;99.90;;;;;;5087822;28;20116;-76
2023/12/04 00:34:25;;;;;;;26.50;12.98;;;2.30;99.90;;;;;;5074508;28;20027;-76
2023/12/04 00:36:50;;;;;;;25.13;13.27;;;2.30;99.90;;;;;;5072154;28;20016;-76
2023/12/04 00:39:16;;;;;;;31.48;13.65;;;2.30;99.90;;;;;;5065514;28;20082;-75
2023/12/04 00:41:42;;;;;;;28.30;13.23;;;2.30;99.90;;;;;;5071701;28;20384;-76
2023/12/04 00:44:08;;;;;;;24.17;13.10;;;2.30;99.90;;;;;;5076749;28;20031;-75
2023/12/04 00:46:34;;;;;;;25.00;12.18;;;2.30;99.90;;;;;;5071148;28;20051;-76
2023/12/04 00:48:59;;;;;;;29.17;13.00;;;2.30;99.90;;;;;;5070022;28;20024;-75
2023/12/04 00:51:26;;;;;;;24.58;12.52;;;2.30;99.90;;;;;;5056436;28;20025;-75
2023/12/04 00:53:51;;;;;;;27.10;12.80;;;2.30;99.90;;;;;;5079330;28;20027;-75
2023/12/04 00:56:18;;;;;;;26.30;12.23;;;2.30;99.90;;;;;;5075310;28;20028;-75
2023/12/04 00:58:44;;;;;;;24.60;12.40;;;2.30;99.90;;;;;;5079275;28;20488;-76
2023/12/04 01:01:09;;;;;;;28.23;12.82;;;2.30;99.90;;;;;;5057313;28;20067;-76
2023/12/04 01:03:35;;;;;;;26.50;12.63;;;2.30;99.90;;;;;;5057915;28;20496;-76
2023/12/04 01:06:00;;;;;;;23.45;11.90;;;2.30;99.90;;;;;;5061243;28;20025;-76
2023/12/04 01:08:26;;;;;;;24.98;11.88;;;2.30;99.90;;;;;;5080619;28;20157;-76
2023/12/04 01:10:52;;;;;;;24.50;11.98;;;2.30;99.90;;;;;;5079712;28;20024;-76
2023/12/04 01:13:17;;;;;;;25.58;12.50;;;2.30;99.90;;;;;;5078313;28;20098;-76
2023/12/04 01:15:44;;;;;;;26.70;13.05;;;2.30;99.90;;;;;;5081976;28;20051;-76
2023/12/04 01:18:10;;;;;;;22.67;11.63;;;2.30;99.90;;;;;;5068995;28;20012;-76
2023/12/04 01:20:37;;;;;;;26.35;12.30;;;2.40;99.90;;;;;;5074603;28;20055;-76
2023/12/04 01:23:02;;;;;;;23.30;12.13;;;2.40;99.90;;;;;;5074343;28;20399;-76
2023/12/04 01:25:28;;;;;;;23.20;11.48;;;2.40;99.90;;;;;;5074629;28;20020;-76
2023/12/04 01:27:53;;;;;;;22.42;11.73;;;2.40;99.90;;;;;;5084507;28;20335;-75
2023/12/04 01:30:19;;;;;;;25.42;11.75;;;2.40;99.90;;;;;;5081357;28;20104;-75
2023/12/04 01:32:44;;;;;;;23.48;12.45;;;2.40;99.90;;;;;;5080318;28;20089;-75
2023/12/04 01:35:10;;;;;;;25.42;12.00;;;2.40;99.90;;;;;;5071341;28;20099;-75
2023/12/04 01:37:37;;;;;;;22.70;11.18;;;2.40;99.90;;;;;;5064696;28;20082;-75
2023/12/04 01:40:06;;;;;;;23.63;11.63;;;2.40;99.90;;;;;;5076092;28;20048;-75
2023/12/04 01:42:32;;;;;;;23.73;12.05;;;2.40;99.90;;;;;;5072611;28;20054;-75
2023/12/04 01:44:57;;;;;;;22.95;11.82;;;2.40;99.90;;;;;;5065306;28;20036;-75
2023/12/04 01:47:23;;;;;;;21.98;11.90;;;2.40;99.90;;;;;;5071461;28;20020;-75
2023/12/04 01:49:48;;;;;;;25.17;12.40;;;2.40;99.90;;;;;;5076087;28;20237;-75
2023/12/04 01:52:14;;;;;;;23.67;11.45;;;2.40;99.90;;;;;;5061536;28;20028;-76
2023/12/04 01:54:40;;;;;;;25.60;12.05;;;2.40;99.90;;;;;;5074331;28;20020;-76
2023/12/04 01:57:07;;;;;;;23.17;11.45;;;2.40;99.90;;;;;;5080202;28;20048;-76
2023/12/04 01:59:33;;;;;;;26.98;12.52;;;2.40;99.90;;;;;;5068809;28;20033;-76
2023/12/04 02:01:58;;;;;;;24.60;12.32;;;2.40;99.90;;;;;;5067864;28;20024;-76
2023/12/04 02:04:25;;;;;;;22.75;11.23;;;2.40;99.90;;;;;;5071498;28;20051;-76
2023/12/04 02:06:50;;;;;;;22.23;11.10;;;2.40;99.90;;;;;;5063880;28;20031;-76
2023/12/04 02:09:16;;;;;;;21.88;11.77;;;2.40;99.90;;;;;;5089542;28;20024;-76
2023/12/04 02:11:42;;;;;;;22.67;12.02;;;2.40;99.90;;;;;;5084261;28;20415;-76
2023/12/04 02:14:08;;;;;;;24.00;11.52;;;2.40;99.90;;;;;;5068182;28;20024;-76
2023/12/04 02:16:39;;;;;;;23.40;11.38;;;2.40;99.90;;;;;;5073969;28;20040;-76
2023/12/04 02:19:08;;;;;;;23.45;11.95;;;2.40;99.90;;;;;;5060605;28;20082;-76
2023/12/04 02:21:34;;;;;;;22.65;11.02;;;2.40;99.90;;;;;;5071327;28;20016;-76
2023/12/04 02:23:59;;;;;;;24.52;10.90;;;2.40;99.90;;;;;;5070621;28;20031;-76
2023/12/04 02:26:32;;;;;;;21.77;10.93;;;2.40;99.90;;;;;;5073771;28;20047;-76
2023/12/04 02:29:00;;;;;;;20.60;10.82;;;2.40;99.90;;;;;;5080075;28;20048;-76
2023/12/04 02:31:29;;;;;;;21.73;10.40;;;2.40;99.90;;;;;;5068958;28;20021;-76
2023/12/04 02:33:57;;;;;;;20.23;10.52;;;2.40;99.90;;;;;;5082671;28;20114;-76
2023/12/04 02:36:24;;;;;;;20.63;10.43;;;2.40;99.90;;;;;;5078342;28;20035;-76
2023/12/04 02:38:50;;;;;;;20.92;11.27;;;2.40;99.90;;;;;;5080051;28;20483;-76
2023/12/04 02:41:17;;;;;;;21.33;10.30;;;2.40;99.90;;;;;;5071848;28;20072;-76
2023/12/04 02:43:43;;;;;;;22.33;10.68;;;2.40;99.90;;;;;;5070455;28;20021;-76
2023/12/04 02:46:09;;;;;;;21.98;10.95;;;2.40;99.90;;;;;;5080085;28;20028;-76
2023/12/04 02:48:34;;;;;;;20.05;9.90;;;2.40;99.90;;;;;;5073973;28;20048;-76
2023/12/04 02:51:00;;;;;;;21.25;10.38;;;2.40;99.90;;;;;;5070895;28;20035;-75
2023/12/04 02:53:25;;;;;;;20.75;10.07;;;2.40;99.90;;;;;;5088415;28;20016;-76
2023/12/04 02:55:51;;;;;;;20.23;10.00;;;2.40;99.90;;;;;;5074593;28;20020;-76
2023/12/04 02:58:16;;;;;;;19.25;10.25;;;2.40;99.90;;;;;;5067329;28;20104;-76
2023/12/04 03:00:42;;;;;;;21.05;9.98;;;2.40;99.90;;;;;;5071581;28;20434;-75
2023/12/04 03:03:07;;;;;;;20.30;9.80;;;2.40;99.90;;;;;;5056545;28;20430;-76
2023/12/04 03:05:33;;;;;;;21.63;9.90;;;2.40;99.90;;;;;;5076893;28;20062;-76
2023/12/04 03:07:59;;;;;;;21.77;9.90;;;2.40;99.90;;;;;;5085033;28;20606;-75
2023/12/04 03:10:24;;;;;;;21.75;9.93;;;2.40;99.90;;;;;;5072323;28;20032;-76
2023/12/04 03:12:50;;;;;;;21.05;10.38;;;2.40;99.90;;;;;;5068748;28;20025;-76
2023/12/04 03:15:15;;;;;;;18.85;10.10;;;2.40;99.90;;;;;;5066708;28;20060;-75
2023/12/04 03:17:41;;;;;;;18.50;9.50;;;2.40;99.90;;;;;;5068753;28;20412;-76
2023/12/04 03:20:08;;;;;;;19.40;9.75;;;2.40;99.90;;;;;;5078638;28;20360;-76
2023/12/04 03:22:35;;;;;;;19.73;9.98;;;2.40;99.90;;;;;;5086505;28;20058;-76
2023/12/04 03:25:00;;;;;;;18.80;9.55;;;2.40;99.90;;;;;;5072571;28;20017;-76
2023/12/04 03:27:26;;;;;;;20.42;9.90;;;2.40;99.90;;;;;;5081195;28;20371;-76
2023/12/04 03:29:51;;;;;;;21.23;9.52;;;2.40;99.90;;;;;;5083735;28;20016;-76
2023/12/04 03:32:17;;;;;;;18.30;9.10;;;2.40;99.90;;;;;;5077348;28;20028;-76
2023/12/04 03:34:42;;;;;;;18.92;9.48;;;2.40;99.90;;;;;;5071984;28;20024;-76
2023/12/04 03:37:08;;;;;;;18.08;9.32;;;2.40;99.90;;;;;;5077276;28;20370;-76
2023/12/04 03:39:33;;;;;;;17.48;8.80;;;2.40;99.90;;;;;;5059592;28;20025;-76
2023/12/04 03:41:59;;;;;;;18.13;9.63;;;2.40;99.90;;;;;;5073391;28;20085;-76
2023/12/04 03:44:25;;;;;;;17.17;9.02;;;2.40;99.90;;;;;;5062312;28;20037;-76
2023/12/04 03:46:51;;;;;;;17.40;8.55;;;2.40;99.90;;;;;;5069857;28;20475;-76
2023/12/04 03:49:17;;;;;;;18.60;9.35;;;2.40;99.90;;;;;;5072809;28;20025;-76
2023/12/04 03:51:42;;;;;;;16.88;8.63;;;2.40;99.90;;;;;;5078060;28;20550;-76
2023/12/04 03:54:08;;;;;;;17.90;8.70;;;2.50;99.90;;;;;;5058341;28;20040;-75
2023/12/04 03:56:34;;;;;;;18.50;9.05;;;2.50;99.90;;;;;;5083604;28;20074;-76
2023/12/04 03:58:59;;;;;;;19.13;8.38;;;2.50;99.90;;;;;;5061326;28;20070;-76
2023/12/04 04:01:25;;;;;;;15.73;8.73;;;2.50;99.90;;;;;;5061171;28;20028;-76
2023/12/04 04:03:50;;;;;;;16.58;8.15;;;2.50;99.90;;;;;;5056983;28;20032;-76
2023/12/04 04:06:16;;;;;;;18.40;9.05;;;2.50;99.90;;;;;;5054676;28;20032;-76
2023/12/04 04:08:42;;;;;;;17.00;7.93;;;2.50;99.90;;;;;;5072056;28;20029;-76
2023/12/04 04:11:07;;;;;;;13.55;7.13;;;2.50;99.90;;;;;;5059080;28;20070;-75
2023/12/04 04:13:33;;;;;;;14.63;7.55;;;2.50;99.90;;;;;;5073060;28;20055;-76
2023/12/04 04:15:58;;;;;;;14.65;8.02;;;2.60;99.90;;;;;;5073931;28;20422;-76
2023/12/04 04:18:24;;;;;;;14.90;7.65;;;2.60;99.90;;;;;;5064092;28;20100;-75
2023/12/04 04:20:49;;;;;;;15.38;7.38;;;2.60;99.90;;;;;;5085231;28;20086;-76
2023/12/04 04:23:15;;;;;;;14.10;7.20;;;2.60;99.90;;;;;;5071753;28;20448;-76
2023/12/04 04:25:41;;;;;;;13.77;7.68;;;2.60;99.90;;;;;;5069173;28;20042;-76
2023/12/04 04:28:06;;;;;;;14.15;7.07;;;2.60;99.90;;;;;;5057918;28;20020;-76
2023/12/04 04:30:32;;;;;;;14.85;8.18;;;2.60;99.90;;;;;;5068643;28;20094;-76
2023/12/04 04:32:57;;;;;;;15.18;7.65;;;2.60;99.90;;;;;;5070765;28;20020;-75
2023/12/04 04:35:23;;;;;;;14.68;7.43;;;2.60;99.90;;;;;;5053677;28;20369;-75
2023/12/04 04:37:48;;;;;;;14.73;7.88;;;2.60;99.90;;;;;;5085004;28;20035;-76
2023/12/04 04:40:14;;;;;;;13.93;7.50;;;2.60;99.90;;;;;;5079623;28;20096;-75
2023/12/04 04:42:39;;;;;;;15.85;8.20;;;2.60;99.90;;;;;;5070255;28;20468;-76
2023/12/04 04:45:06;;;;;;;13.38;7.32;;;2.60;99.90;;;;;;5081924;28;20463;-76
2023/12/04 04:47:31;;;;;;;14.75;7.43;;;2.60;99.90;;;;;;5070235;28;20846;-76
2023/12/04 04:49:57;;;;;;;14.45;7.07;;;2.60;99.90;;;;;;5080117;28;20069;-76
2023/12/04 04:52:22;;;;;;;12.38;7.47;;;2.60;99.90;;;;;;5089340;28;20588;-76
2023/12/04 04:54:48;;;;;;;14.40;7.53;;;2.60;99.90;;;;;;5081087;28;20380;-76
2023/12/04 04:57:13;;;;;;;14.95;7.43;;;2.60;99.90;;;;;;5065152;28;20032;-76
2023/12/04 04:59:39;;;;;;;13.35;7.03;;;2.60;99.90;;;;;;5072905;28;20099;-76
2023/12/04 05:02:05;;;;;;;12.43;7.00;;;2.60;99.90;;;;;;5072100;28;20017;-75
2023/12/04 05:04:30;;;;;;;15.40;7.63;;;2.60;99.90;;;;;;5061246;28;20401;-76
2023/12/04 05:06:56;;;;;;;13.00;7.57;;;2.60;99.90;;;;;;5066453;28;20082;-76
2023/12/04 05:09:22;;;;;;;14.65;7.45;;;2.70;99.90;;;;;;5076264;28;20046;-76
2023/12/04 05:11:47;;;;;;;13.35;7.45;;;2.60;99.90;;;;;;5075969;28;20029;-76
2023/12/04 05:14:13;;;;;;;16.40;7.53;;;2.60;99.90;;;;;;5086238;28;20087;-76
2023/12/04 05:16:38;;;;;;;12.45;6.85;;;2.70;99.90;;;;;;5076071;28;20025;-77
2023/12/04 05:19:04;;;;;;;12.75;6.97;;;2.60;99.90;;;;;;5067897;28;20068;-76
2023/12/04 05:21:29;;;;;;;13.32;6.82;;;2.70;99.90;;;;;;5078258;28;20025;-76
2023/12/04 05:23:55;;;;;;;15.05;7.47;;;2.70;99.90;;;;;;5082459;28;20023;-76
2023/12/04 05:26:20;;;;;;;12.93;6.82;;;2.70;99.90;;;;;;5080811;28;20514;-76
2023/12/04 05:28:46;;;;;;;16.45;7.30;;;2.70;99.90;;;;;;5069368;28;20028;-76
2023/12/04 05:31:12;;;;;;;13.80;7.18;;;2.70;99.90;;;;;;5067224;28;20066;-76
2023/12/04 05:33:37;;;;;;;11.32;6.85;;;2.70;99.90;;;;;;5078707;28;20344;-77
2023/12/04 05:36:03;;;;;;;14.50;7.10;;;2.70;99.90;;;;;;5072606;28;20100;-77
2023/12/04 05:38:29;;;;;;;12.80;7.07;;;2.60;99.90;;;;;;5069979;28;20116;-77
2023/12/04 05:40:54;;;;;;;14.38;7.45;;;2.60;99.90;;;;;;5071981;28;20021;-78
2023/12/04 05:43:20;;;;;;;16.05;7.97;;;2.60;99.90;;;;;;5063149;28;20021;-77
2023/12/04 05:45:45;;;;;;;14.65;7.38;;;2.70;99.90;;;;;;5067993;28;20027;-77
2023/12/04 05:48:11;;;;;;;14.07;7.60;;;2.70;99.90;;;;;;5059185;28;20460;-77
2023/12/04 05:50:37;;;;;;;14.20;7.65;;;2.70;99.90;;;;;;5070792;28;20025;-77
2023/12/04 05:53:02;;;;;;;14.70;7.75;;;2.70;99.90;;;;;;5079070;28;20058;-77
2023/12/04 05:55:28;;;;;;;14.95;7.88;;;2.70;99.90;;;;;;5070941;28;20033;-77
2023/12/04 05:57:54;;;;;;;15.20;8.20;;;2.70;99.90;;;;;;5084048;28;20012;-77
2023/12/04 06:00:19;;;;;;;14.68;7.63;;;2.70;99.90;;;;;;5074555;28;20049;-77
2023/12/04 06:02:45;;;;;;;13.90;7.00;;;2.70;99.90;;;;;;5069306;28;20077;-77
2023/12/04 06:05:11;;;;;;;19.85;8.43;;;2.70;99.90;;;;;;5077931;28;20039;-77
2023/12/04 06:07:37;;;;;;;15.63;7.53;;;2.70;99.90;;;;;;5080920;28;20463;-77
2023/12/04 06:10:06;;;;;;;16.08;8.00;;;2.60;99.90;;;;;;5064125;28;20024;-77
2023/12/04 06:12:32;;;;;;;15.48;8.60;;;2.60;99.90;;;;;;5086361;28;20447;-77
2023/12/04 06:14:58;;;;;;;16.85;8.18;;;2.70;99.90;;;;;;5070024;28;20080;-77
2023/12/04 06:17:24;;;;;;;15.30;8.02;;;2.70;99.90;;;;;;5071996;28;20108;-77
2023/12/04 06:19:50;;;;;;;15.30;8.20;;;2.70;99.90;;;;;;5059578;28;20021;-77
2023/12/04 06:22:18;;;;;;;16.70;8.13;;;2.70;99.90;;;;;;5061156;28;20024;-77
2023/12/04 06:24:44;;;;;;;16.02;8.23;;;2.70;99.90;;;;;;5060552;28;20040;-76
2023/12/04 06:27:13;;;;;;;16.25;8.15;;;2.70;99.90;;;;;;5059941;28;20025;-77
2023/12/04 06:29:39;;;;;;;15.65;8.45;;;2.70;99.90;;;;;;5072748;28;20027;-76
2023/12/04 06:32:05;;;;;;;18.23;9.32;;;2.70;99.90;;;;;;5079090;28;20099;-77
2023/12/04 06:34:31;;;;;;;14.63;8.35;;;2.70;99.90;;;;;;5061363;28;20025;-77
2023/12/04 06:36:57;;;;;;;17.77;8.75;;;2.70;99.90;;;;;;5070868;28;20082;-77
2023/12/04 06:39:25;;;;;;;16.67;8.48;;;2.70;99.90;;;;;;5070845;28;20487;-77
2023/12/04 06:41:50;;;;;;;18.13;8.80;;;2.70;99.90;;;;;;5057835;28;20037;-77
2023/12/04 06:44:16;;;;;;;17.77;8.38;;;2.70;99.90;;;;;;5060655;28;20055;-77
2023/12/04 06:46:47;;;;;;;18.70;8.57;;;2.70;99.90;;;;;;5054626;28;20029;-77
2023/12/04 06:49:17;;;;;;;15.50;7.97;;;2.70;99.90;;;;;;5068114;28;20024;-77
2023/12/04 06:51:42;;;;;;;16.00;8.98;;;2.70;99.90;;;;;;5058243;28;20388;-77
2023/12/04 06:54:08;;;;;;;18.60;9.23;;;2.70;99.90;;;;;;5080093;28;20020;-76
2023/12/04 06:56:33;;;;;;;18.83;8.93;;;2.70;99.90;;;;;;5083242;28;20020;-76
2023/12/04 06:58:59;;;;;;;17.77;7.97;;;2.70;99.90;;;;;;5069978;28;20483;-77
2023/12/04 07:01:25;;;;;;;15.98;8.60;;;2.70;99.90;;;;;;5061937;28;20024;-77
2023/12/04 07:03:51;;;;;;;17.73;9.13;;;2.70;99.90;;;;;;5060772;28;20069;-77
2023/12/04 07:06:16;;;;;;;21.30;8.98;;;2.70;99.90;;;;;;5073065;28;20315;-76
2023/12/04 07:08:42;;;;;;;16.33;8.18;;;2.70;99.90;;;;;;5075173;28;20383;-76
2023/12/04 07:11:08;;;;;;;16.65;8.02;;;2.70;99.90;;;;;;5078148;28;20540;-77
2023/12/04 07:13:34;;;;;;;13.93;8.02;;;2.70;99.90;;;;;;5072737;28;20074;-77
2023/12/04 07:15:59;;;;;;;15.80;8.20;;;2.70;99.90;;;;;;5077084;28;20036;-77
2023/12/04 07:18:25;;;;;;;15.15;8.23;;;2.80;99.90;;;;;;5070452;28;20016;-77
2023/12/04 07:20:51;;;;;;;14.57;7.95;;;2.80;99.90;;;;;;5077296;28;20096;-77
2023/12/04 07:23:16;;;;;;;15.50;7.78;;;2.80;99.90;;;;;;5065914;28;20059;-77
2023/12/04 07:25:42;;;;;;;14.27;7.68;;;2.80;99.90;;;;;;5069329;28;20382;-76
2023/12/04 07:28:08;;;;;;;14.30;7.50;;;2.80;99.90;;;;;;5070441;28;20028;-77
2023/12/04 07:30:33;;;;;;;17.52;8.43;;;2.80;99.90;;;;;;5066578;28;20029;-76
2023/12/04 07:32:59;;;;;;;15.00;8.32;;;2.80;99.90;;;;;;5071589;28;20363;-77
2023/12/04 07:35:26;;;;;;;12.15;7.05;;;2.80;99.90;;;;;;5068785;28;20347;-76
2023/12/04 07:37:52;;;;;;;13.73;7.60;;;2.90;99.90;;;;;;5068457;28;20023;-76
2023/12/04 07:40:18;;;;;;;12.70;7.50;;;2.90;99.90;;;;;;5061429;28;20021;-76
2023/12/04 07:42:43;;;;;;;14.00;7.65;;;2.90;99.90;;;;;;5060876;28;20020;-76
2023/12/04 07:45:10;;;;;;;15.13;7.60;;;2.90;99.90;;;;;;5058543;28;20507;-76
2023/12/04 07:47:36;;;;;;;15.50;7.72;;;2.90;99.90;;;;;;5055804;28;20036;-76
2023/12/04 07:50:02;;;;;;;13.27;7.68;;;2.90;99.90;;;;;;5061349;28;20075;-76
2023/12/04 07:52:27;;;;;;;17.15;8.25;;;2.90;99.90;;;;;;5080862;28;20028;-76
2023/12/04 07:54:53;;;;;;;13.43;7.70;;;2.90;99.90;;;;;;5068516;28;20048;-77
2023/12/04 07:57:19;;;;;;;11.55;7.43;;;2.90;99.90;;;;;;5057047;28;20036;-76
2023/12/04 07:59:44;;;;;;;12.73;7.00;;;2.90;99.90;;;;;;5067673;28;20531;-76
2023/12/04 08:02:10;;;;;;;15.00;7.72;;;3.00;99.90;;;;;;5063934;28;20016;-76
2023/12/04 08:04:36;;;;;;;14.27;7.10;;;3.00;99.90;;;;;;5064181;28;20395;-76
2023/12/04 08:07:02;;;;;;;14.07;7.57;;;3.00;99.90;;;;;;5075463;28;20055;-76
2023/12/04 08:09:27;;;;;;;12.57;7.15;;;3.00;99.90;;;;;;5077939;28;20017;-76
2023/12/04 08:11:53;;;;;;;11.40;6.97;;;3.00;99.90;;;;;;5078068;28;20126;-76
2023/12/04 08:14:19;;;;;;;12.90;7.20;;;3.00;99.90;;;;;;5078133;28;20024;-76
2023/12/04 08:16:44;;;;;;;11.98;7.18;;;3.00;99.90;;;;;;5066002;28;20021;-76
2023/12/04 08:19:10;;;;;;;12.90;7.43;;;3.00;99.90;;;;;;5088771;28;20027;-76
2023/12/04 08:21:35;;;;;;;11.73;6.97;;;3.10;99.90;;;;;;5083607;28;20359;-76
2023/12/04 08:24:01;;;;;;;12.10;6.82;;;3.10;99.90;;;;;;5075836;28;20085;-76
2023/12/04 08:26:26;;;;;;;13.15;7.28;;;3.10;99.90;;;;;;5079031;28;20055;-76
2023/12/04 08:28:52;;;;;;;12.93;7.28;;;3.00;99.90;;;;;;5067080;28;20055;-76
2023/12/04 08:31:18;;;;;;;13.50;7.60;;;3.10;99.90;;;;;;5066494;28;20031;-76
2023/12/04 08:33:44;;;;;;;12.32;7.20;;;3.10;99.90;;;;;;5066605;28;20432;-76
2023/12/04 08:36:11;;;;;;;13.02;7.30;;;3.10;99.90;;;;;;5077237;28;20054;-76
2023/12/04 08:38:37;;;;;;;15.82;7.68;;;3.10;99.90;;;;;;5058794;28;20446;-77
2023/12/04 08:41:04;;;;;;;11.93;6.85;;;3.10;99.90;;;;;;5065699;28;20044;-76
2023/12/04 08:43:29;;;;;;;15.82;7.90;;;3.10;99.90;;;;;;5063697;28;20497;-76
2023/12/04 08:45:55;;;;;;;13.77;7.22;;;3.10;99.90;;;;;;5062700;28;20104;-76
2023/12/04 08:48:21;;;;;;;12.43;7.38;;;3.10;99.90;;;;;;5061807;28;20025;-76
2023/12/04 08:50:47;;;;;;;11.82;6.68;;;3.10;99.90;;;;;;5077562;28;20390;-76
2023/12/04 08:53:13;;;;;;;12.05;7.53;;;3.10;99.90;;;;;;5092004;28;20017;-76
2023/12/04 08:55:39;;;;;;;14.35;7.25;;;3.10;99.90;;;;;;5090540;28;20043;-76
2023/12/04 08:58:04;;;;;;;13.35;7.35;;;3.10;99.90;;;;;;5072407;28;20043;-76
2023/12/04 09:00:30;;;;;;;12.02;7.43;;;3.10;99.90;;;;;;5080191;28;20020;-77
2023/12/04 09:02:55;;;;;;;13.38;7.22;;;3.10;99.90;;;;;;5084428;28;20358;-76
2023/12/04 09:05:22;;;;;;;15.05;7.35;;;3.10;99.90;;;;;;5079599;28;20032;-77
2023/12/04 09:07:47;;;;;;;14.73;7.65;;;3.10;99.90;;;;;;5079944;28;20028;-76
2023/12/04 09:10:13;;;;;;;12.43;7.20;;;3.10;99.90;;;;;;5069958;28;20107;-77
2023/12/04 09:12:40;;;;;;;14.23;7.10;;;3.10;99.90;;;;;;5074148;28;20119;-77
2023/12/04 09:15:06;;;;;;;13.52;6.93;;;3.10;99.90;;;;;;5063715;28;20056;-76
2023/12/04 09:17:32;;;;;;;13.05;7.60;;;3.10;99.90;;;;;;5062393;28;20025;-77
2023/12/04 09:19:57;;;;;;;12.75;7.43;;;3.10;99.90;;;;;;5073820;28;20032;-76
2023/12/04 09:22:23;;;;;;;13.32;7.50;;;3.20;99.90;;;;;;5072009;28;20017;-77
2023/12/04 09:24:49;;;;;;;13.23;7.28;;;3.20;99.90;;;;;;5083136;28;20078;-77
2023/12/04 09:27:15;;;;;;;11.60;6.68;;;3.20;99.90;;;;;;5082315;28;20035;-77
2023/12/04 09:29:41;;;;;;;14.05;7.40;;;3.20;99.90;;;;;;5077109;28;20397;-77
2023/12/04 09:32:07;;;;;;;15.30;7.43;;;3.20;99.90;;;;;;5071480;28;20099;-77
2023/12/04 09:34:32;;;;;;;12.77;6.97;;;3.20;99.90;;;;;;5083094;28;20074;-77
2023/12/04 09:36:58;;;;;;;13.48;7.03;;;3.20;99.90;;;;;;5074869;28;20091;-77
2023/12/04 09:39:23;;;;;;;14.20;7.55;;;3.20;99.90;;;;;;5083169;28;20016;-76
2023/12/04 09:41:50;;;;;;;13.70;7.82;;;3.20;99.90;;;;;;5083865;28;20047;-77
2023/12/04 09:44:16;;;;;;;14.13;7.05;;;3.20;99.90;;;;;;5075370;28;20024;-76
2023/12/04 09:46:42;;;;;;;12.30;6.88;;;3.20;99.90;;;;;;5072671;28;20036;-76
2023/12/04 09:49:08;;;;;;;13.10;7.20;;;3.20;99.90;;;;;;5075638;28;20063;-77
2023/12/04 09:51:34;;;;;;;12.60;7.82;;;3.20;99.90;;;;;;5084231;28;20035;-76
2023/12/04 09:54:05;;;;;;;12.88;6.95;;;3.30;99.90;;;;;;5081109;28;20056;-76
2023/12/04 09:56:33;;;;;;;14.55;7.45;;;3.30;99.90;;;;;;5077011;28;20032;-77
2023/12/04 09:58:59;;;;;;;13.57;7.82;;;3.20;99.90;;;;;;5063907;28;20055;-77
2023/12/04 10:01:27;;;;;;;12.15;7.20;;;3.30;99.90;;;;;;5077231;28;20016;-77
2023/12/04 10:03:52;;;;;;;13.20;7.45;;;3.30;99.90;;;;;;5055835;28;20020;-77
2023/12/04 10:06:19;;;;;;;15.23;7.65;;;3.30;99.90;;;;;;5055614;28;20423;-77
2023/12/04 10:08:45;;;;;;;13.52;7.15;;;3.30;99.90;;;;;;5069379;28;20021;-76
2023/12/04 10:11:13;;;;;;;13.38;7.38;;;3.30;99.90;;;;;;5077364;28;20047;-77
2023/12/04 10:13:41;;;;;;;13.68;7.55;;;3.40;99.90;;;;;;5073007;28;20026;-76
2023/12/04 10:16:07;;;;;;;13.25;7.07;;;3.40;99.90;;;;;;5072644;28;20040;-77
2023/12/04 10:18:33;;;;;;;12.43;6.78;;;3.40;99.90;;;;;;5076482;28;20361;-76
2023/12/04 10:20:59;;;;;;;14.43;7.30;;;3.40;99.90;;;;;;5062663;28;20047;-76
2023/12/04 10:23:39;;;;;;;11.38;7.00;;;3.40;99.90;;;;;;5075862;28;20028;-76
2023/12/04 10:26:05;;;;;;;12.93;7.50;;;3.50;99.90;;;;;;5065410;28;20039;-76
2023/12/04 10:28:30;;;;;;;12.13;7.05;;;3.50;99.90;;;;;;5084182;28;20073;-76
2023/12/04 10:30:56;;;;;;;13.10;6.97;;;3.50;99.90;;;;;;5068108;28;20017;-77
2023/12/04 10:33:25;;;;;;;11.98;6.97;;;3.50;99.90;;;;;;5069262;28;20414;-77
2023/12/04 10:35:51;;;;;;;11.50;7.10;;;3.60;99.90;;;;;;5072627;28;20066;-76
2023/12/04 10:38:18;;;;;;;12.32;6.70;;;3.60;99.90;;;;;;5073392;28;20048;-76
2023/12/04 10:40:43;;;;;;;11.55;7.10;;;3.70;99.90;;;;;;5075034;28;20384;-77
2023/12/04 10:43:12;;;;;;;9.82;6.50;;;3.70;99.90;;;;;;5078654;28;20299;-77
2023/12/04 10:45:42;;;;;;;13.15;7.05;;;3.70;99.90;;;;;;5070243;28;20035;-76
2023/12/04 10:48:08;;;;;;;13.23;6.68;;;3.80;99.90;;;;;;5064566;28;20017;-76
2023/12/04 10:50:35;;;;;;;11.52;6.93;;;3.80;99.90;;;;;;5062072;28;20100;-77
2023/12/04 10:53:05;;;;;;;11.05;6.38;;;3.90;99.90;;;;;;5073949;28;20024;-76
2023/12/04 10:55:31;;;;;;;11.27;6.53;;;3.90;99.90;;;;;;5089156;28;20030;-77
2023/12/04 10:57:59;;;;;;;12.60;7.45;;;3.90;99.90;;;;;;5069219;28;20069;-76
2023/12/04 11:00:25;;;;;;;11.00;6.90;;;4.00;99.90;;;;;;5060118;28;20065;-76
2023/12/04 11:02:55;;;;;;;9.43;6.20;;;4.00;99.90;;;;;;5071562;28;20059;-77
2023/12/04 11:05:22;;;;;;;10.70;6.57;;;4.10;99.90;;;;;;5078870;28;20024;-76
2023/12/04 11:07:53;;;;;;;10.15;6.43;;;4.10;99.90;;;;;;5068644;28;20615;-76
2023/12/04 11:10:25;;;;;;;12.63;6.40;;;4.10;99.90;;;;;;5067842;28;20023;-77
2023/12/04 11:12:58;;;;;;;13.00;6.43;;;4.10;99.90;;;;;;5061813;28;20032;-77
2023/12/04 11:15:25;;;;;;;12.52;6.40;;;4.10;99.90;;;;;;5075503;28;20052;-77
2023/12/04 11:17:58;;;;;;;10.50;6.40;;;4.10;99.90;;;;;;5072413;28;20024;-76
2023/12/04 11:20:27;;;;;;;11.40;6.43;;;4.10;99.90;;;;;;5069711;28;20037;-77
2023/12/04 11:22:53;;;;;;;10.93;6.55;;;4.10;99.90;;;;;;5072300;28;20016;-77
2023/12/04 11:25:23;;;;;;;12.77;6.80;;;4.10;99.90;;;;;;5057513;28;20047;-77
2023/12/04 11:27:49;;;;;;;15.20;6.70;;;4.10;99.90;;;;;;5060689;28;20029;-76
2023/12/04 11:30:16;;;;;;;9.98;6.40;;;4.10;99.90;;;;;;5070481;28;20028;-76
2023/12/04 11:32:51;;;;;;;9.02;6.18;;;4.10;99.90;;;;;;5069821;28;20021;-76
2023/12/04 11:35:17;;;;;;;;;;;4.10;99.90;;;;;;5057462;28;20025;-76
2023/12/04 11:37:44;;;;;;;12.95;6.82;;;4.00;99.90;;;;;;5071443;28;19904;-77
2023/12/04 11:40:15;;;;;;;12.65;6.38;;;4.10;99.90;;;;;;5071147;28;20150;-76
2023/12/04 11:42:41;;;;;;;10.02;6.38;;;4.10;99.90;;;;;;5079802;28;20012;-76
2023/12/04 11:45:08;;;;;;;12.32;6.20;;;4.10;99.90;;;;;;5069997;28;20082;-76
2023/12/04 11:47:59;;;;;;;11.13;6.70;;;4.10;99.90;;;;;;5067337;28;20048;-76
2023/12/04 11:50:25;;;;;;;12.10;6.75;;;4.10;99.90;;;;;;5072209;28;20071;-76
2023/12/04 11:52:52;;;;;;;12.80;7.00;;;4.10;99.90;;;;;;5069753;28;20474;-76
2023/12/04 11:55:21;;;;;;;13.13;6.40;;;4.10;99.90;;;;;;5057516;28;20052;-76
2023/12/04 11:57:49;;;;;;;12.02;6.35;;;4.20;99.90;;;;;;5057088;28;20461;-76
2023/12/04 12:00:21;;;;;;;10.32;6.25;;;4.20;99.90;;;;;;5076729;28;20024;-76
2023/12/04 12:02:47;;;;;;;12.70;6.88;;;4.20;99.90;;;;;;5072572;28;20043;-76
2023/12/04 12:05:13;;;;;;;10.13;6.43;;;4.20;99.90;;;;;;5065609;28;20025;-76
2023/12/04 12:07:38;;;;;;;9.93;6.13;;;4.20;99.90;;;;;;5063937;28;20041;-76
2023/12/04 12:10:04;;;;;;;10.73;6.40;;;4.10;99.90;;;;;;5068467;28;20047;-77
2023/12/04 12:12:32;;;;;;;12.00;6.38;;;4.20;99.90;;;;;;5070028;28;20111;-76
2023/12/04 12:14:58;;;;;;;10.30;6.55;;;4.10;99.90;;;;;;5070579;28;20056;-76
2023/12/04 12:17:25;;;;;;;10.90;6.97;;;4.20;99.90;;;;;;5076751;28;20093;-76
2023/12/04 12:19:50;;;;;;;13.05;6.45;;;4.20;99.90;;;;;;5062094;28;20020;-77
2023/12/04 12:22:16;;;;;;;13.48;6.75;;;4.20;99.90;;;;;;5068456;28;20027;-76
2023/12/04 12:24:42;;;;;;;9.55;6.50;;;4.20;99.90;;;;;;5070391;28;20460;-76
2023/12/04 12:27:08;;;;;;;10.00;6.38;;;4.20;99.90;;;;;;5070693;28;20036;-76
2023/12/04 12:29:33;;;;;;;10.82;6.80;;;4.20;99.90;;;;;;5071963;28;20060;-77
2023/12/04 12:31:59;;;;;;;9.57;6.57;;;4.10;99.90;;;;;;5070102;28;20395;-76
2023/12/04 12:34:24;;;;;;;9.10;6.15;;;4.20;99.90;;;;;;5061268;28;20053;-76
2023/12/04 12:36:50;;;;;;;10.15;6.35;;;4.10;99.90;;;;;;5074354;28;20021;-76
2023/12/04 12:39:15;;;;;;;11.23;7.00;;;4.10;99.90;;;;;;5065642;28;20022;-76